sensor_id;sensor_type;location;lat;lon;timestamp;pressure;altitude;pressure_sealevel;temperature;humidity
76730;BME280;65653;53.106;18.046;2023-12-04T00:02:07;101339.01;;;-2.59;100.00
76730;BME280;65653;53.106;18.046;2023-12-04T00:04:34;101340.78;;;-2.58;100.00
76730;BME280;65653;53.106;18.046;2023-12-04T00:07:00;101337.56;;;-2.59;100.00
76730;BME280;65653;53.106;18.046;2023-12-04T00:09:27;101338.85;;;-2.59;100.00
76730;BME280;65653;53.106;18.046;2023-12-04T00:11:54;101337.92;;;-2.59;100.00
76730;BME280;65653;53.106;18.046;2023-12-04T00:14:20;101336.20;;;-2.60;100.00
76730;BME280;65653;53.106;18.046;2023-12-04T00:16:47;101337.98;;;-2.60;100.00
76730;BME280;65653;53.106;18.046;2023-12-04T00:19:13;101345.05;;;-2.60;100.00
76730;BME280;65653;53.106;18.046;2023-12-04T00:21:40;101343.36;;;-2.59;100.00
76730;BME280;65653;53.106;18.046;2023-12-04T00:24:06;101343.75;;;-2.59;100.00
76730;BME280;65653;53.106;18.046;2023-12-04T00:26:33;101355.48;;;-2.59;100.00
76730;BME280;65653;53.106;18.046;2023-12-04T00:28:59;101352.30;;;-2.60;100.00
76730;BME280;65653;53.106;18.046;2023-12-04T00:31:26;101353.39;;;-2.60;100.00
76730;BME280;65653;53.106;18.046;2023-12-04T00:33:52;101355.69;;;-2.59;100.00
76730;BME280;65653;53.106;18.046;2023-12-04T00:36:19;101356.78;;;-2.60;100.00
76730;BME280;65653;53.106;18.046;2023-12-04T00:38:46;101356.19;;;-2.59;100.00
76730;BME280;65653;53.106;18.046;2023-12-04T00:41:12;101357.92;;;-2.58;100.00
76730;BME280;65653;53.106;18.046;2023-12-04T00:43:39;101351.80;;;-2.58;100.00
76730;BME280;65653;53.106;18.046;2023-12-04T00:46:05;101355.88;;;-2.57;100.00
76730;BME280;65653;53.106;18.046;2023-12-04T00:48:32;101351.05;;;-2.58;100.00
76730;BME280;65653;53.106;18.046;2023-12-04T00:50:58;101356.95;;;-2.57;100.00
76730;BME280;65653;53.106;18.046;2023-12-04T00:53:25;101351.76;;;-2.58;100.00
76730;BME280;65653;53.106;18.046;2023-12-04T00:55:51;101358.05;;;-2.57;100.00
76730;BME280;65653;53.106;18.046;2023-12-04T00:58:17;101360.40;;;-2.57;100.00
76730;BME280;65653;53.106;18.046;2023-12-04T01:00:44;101361.54;;;-2.58;100.00
76730;BME280;65653;53.106;18.046;2023-12-04T01:03:10;101360.66;;;-2.58;100.00
76730;BME280;65653;53.106;18.046;2023-12-04T01:05:37;101359.95;;;-2.58;100.00
76730;BME280;65653;53.106;18.046;2023-12-04T01:08:03;101366.30;;;-2.59;100.00
76730;BME280;65653;53.106;18.046;2023-12-04T01:10:30;101365.27;;;-2.60;100.00
76730;BME280;65653;53.106;18.046;2023-12-04T01:12:56;101367.80;;;-2.60;100.00
76730;BME280;65653;53.106;18.046;2023-12-04T01:15:23;101367.27;;;-2.60;100.00
76730;BME280;65653;53.106;18.046;2023-12-04T01:17:50;101366.39;;;-2.60;100.00
76730;BME280;65653;53.106;18.046;2023-12-04T01:20:16;101367.50;;;-2.61;100.00
76730;BME280;65653;53.106;18.046;2023-12-04T01:22:43;101370.41;;;-2.61;100.00
76730;BME280;65653;53.106;18.046;2023-12-04T01:25:09;101370.00;;;-2.60;100.00
76730;BME280;65653;53.106;18.046;2023-12-04T01:27:36;101373.27;;;-2.60;100.00
76730;BME280;65653;53.106;18.046;2023-12-04T01:30:07;101372.91;;;-2.60;100.00
76730;BME280;65653;53.106;18.046;2023-12-04T01:32:35;101373.97;;;-2.60;100.00
76730;BME280;65653;53.106;18.046;2023-12-04T01:35:02;101373.09;;;-2.60;100.00
76730;BME280;65653;53.106;18.046;2023-12-04T01:37:28;101372.84;;;-2.59;100.00
76730;BME280;65653;53.106;18.046;2023-12-04T01:39:55;101370.08;;;-2.58;100.00
76730;BME280;65653;53.106;18.046;2023-12-04T01:42:21;101370.44;;;-2.58;100.00
76730;BME280;65653;53.106;18.046;2023-12-04T01:44:48;101374.56;;;-2.58;100.00
76730;BME280;65653;53.106;18.046;2023-12-04T01:47:14;101374.09;;;-2.59;100.00
76730;BME280;65653;53.106;18.046;2023-12-04T01:49:41;101381.29;;;-2.58;100.00
76730;BME280;65653;53.106;18.046;2023-12-04T01:52:07;101376.59;;;-2.58;100.00
76730;BME280;65653;53.106;18.046;2023-12-04T01:54:34;101376.02;;;-2.58;100.00
76730;BME280;65653;53.106;18.046;2023-12-04T01:57:02;101374.77;;;-2.58;100.00
76730;BME280;65653;53.106;18.046;2023-12-04T01:59:29;101374.07;;;-2.58;100.00
76730;BME280;65653;53.106;18.046;2023-12-04T02:01:56;101375.14;;;-2.58;100.00
76730;BME280;65653;53.106;18.046;2023-12-04T02:04:22;101376.99;;;-2.59;100.00
76730;BME280;65653;53.106;18.046;2023-12-04T02:06:49;101386.38;;;-2.59;100.00
76730;BME280;65653;53.106;18.046;2023-12-04T02:09:15;101383.84;;;-2.59;100.00
76730;BME280;65653;53.106;18.046;2023-12-04T02:11:42;101381.36;;;-2.60;100.00
76730;BME280;65653;53.106;18.046;2023-12-04T02:14:09;101386.44;;;-2.60;100.00
76730;BME280;65653;53.106;18.046;2023-12-04T02:16:40;101388.66;;;-2.60;100.00
76730;BME280;65653;53.106;18.046;2023-12-04T02:19:07;101390.19;;;-2.62;100.00
76730;BME280;65653;53.106;18.046;2023-12-04T02:21:35;101391.08;;;-2.61;100.00
76730;BME280;65653;53.106;18.046;2023-12-04T02:24:01;101385.66;;;-2.62;100.00
76730;BME280;65653;53.106;18.046;2023-12-04T02:26:33;101383.70;;;-2.62;100.00
76730;BME280;65653;53.106;18.046;2023-12-04T02:29:05;101384.86;;;-2.63;100.00
76730;BME280;65653;53.106;18.046;2023-12-04T02:31:34;101381.45;;;-2.64;100.00
76730;BME280;65653;53.106;18.046;2023-12-04T02:34:04;101380.85;;;-2.63;100.00
76730;BME280;65653;53.106;18.046;2023-12-04T02:36:34;101382.42;;;-2.64;100.00
76730;BME280;65653;53.106;18.046;2023-12-04T02:39:01;101385.55;;;-2.65;100.00
76730;BME280;65653;53.106;18.046;2023-12-04T02:41:28;101385.60;;;-2.66;100.00
76730;BME280;65653;53.106;18.046;2023-12-04T02:43:54;101387.75;;;-2.66;100.00
76730;BME280;65653;53.106;18.046;2023-12-04T02:46:21;101390.23;;;-2.65;100.00
76730;BME280;65653;53.106;18.046;2023-12-04T02:48:47;101392.25;;;-2.65;100.00
76730;BME280;65653;53.106;18.046;2023-12-04T02:51:14;101394.46;;;-2.66;100.00
76730;BME280;65653;53.106;18.046;2023-12-04T02:53:40;101391.94;;;-2.66;100.00
76730;BME280;65653;53.106;18.046;2023-12-04T02:56:07;101394.14;;;-2.67;100.00
76730;BME280;65653;53.106;18.046;2023-12-04T02:58:34;101392.86;;;-2.66;100.00
76730;BME280;65653;53.106;18.046;2023-12-04T03:01:01;101393.77;;;-2.67;100.00
76730;BME280;65653;53.106;18.046;2023-12-04T03:03:27;101392.27;;;-2.68;100.00
76730;BME280;65653;53.106;18.046;2023-12-04T03:05:54;101395.19;;;-2.69;100.00
76730;BME280;65653;53.106;18.046;2023-12-04T03:08:20;101396.96;;;-2.68;100.00
76730;BME280;65653;53.106;18.046;2023-12-04T03:10:46;101396.64;;;-2.69;100.00
76730;BME280;65653;53.106;18.046;2023-12-04T03:13:13;101400.32;;;-2.70;100.00
76730;BME280;65653;53.106;18.046;2023-12-04T03:15:39;101400.33;;;-2.70;100.00
76730;BME280;65653;53.106;18.046;2023-12-04T03:18:06;101399.65;;;-2.70;100.00
76730;BME280;65653;53.106;18.046;2023-12-04T03:20:33;101397.12;;;-2.71;100.00
76730;BME280;65653;53.106;18.046;2023-12-04T03:22:59;101400.86;;;-2.72;100.00
76730;BME280;65653;53.106;18.046;2023-12-04T03:25:26;101400.80;;;-2.74;100.00
76730;BME280;65653;53.106;18.046;2023-12-04T03:27:52;101400.16;;;-2.75;100.00
76730;BME280;65653;53.106;18.046;2023-12-04T03:30:18;101399.36;;;-2.77;100.00
76730;BME280;65653;53.106;18.046;2023-12-04T03:32:46;101404.98;;;-2.77;100.00
76730;BME280;65653;53.106;18.046;2023-12-04T03:35:13;101405.92;;;-2.78;100.00
76730;BME280;65653;53.106;18.046;2023-12-04T03:37:39;101406.25;;;-2.80;100.00
76730;BME280;65653;53.106;18.046;2023-12-04T03:40:07;101405.73;;;-2.80;100.00
76730;BME280;65653;53.106;18.046;2023-12-04T03:42:33;101408.51;;;-2.81;100.00
76730;BME280;65653;53.106;18.046;2023-12-04T03:45:00;101408.92;;;-2.82;100.00
76730;BME280;65653;53.106;18.046;2023-12-04T03:47:26;101409.96;;;-2.84;100.00
76730;BME280;65653;53.106;18.046;2023-12-04T03:49:52;101411.33;;;-2.85;100.00
76730;BME280;65653;53.106;18.046;2023-12-04T03:52:19;101410.02;;;-2.87;100.00
76730;BME280;65653;53.106;18.046;2023-12-04T03:54:45;101411.17;;;-2.88;100.00
76730;BME280;65653;53.106;18.046;2023-12-04T03:57:12;101406.79;;;-2.90;100.00
76730;BME280;65653;53.106;18.046;2023-12-04T03:59:38;101407.54;;;-2.91;100.00
76730;BME280;65653;53.106;18.046;2023-12-04T04:02:05;101409.60;;;-2.92;100.00
76730;BME280;65653;53.106;18.046;2023-12-04T04:04:32;101405.70;;;-2.93;100.00
76730;BME280;65653;53.106;18.046;2023-12-04T04:06:58;101401.98;;;-2.94;100.00
76730;BME280;65653;53.106;18.046;2023-12-04T04:09:25;101403.43;;;-2.97;100.00
76730;BME280;65653;53.106;18.046;2023-12-04T04:11:51;101399.77;;;-2.99;100.00
76730;BME280;65653;53.106;18.046;2023-12-04T04:14:18;101405.00;;;-3.02;100.00
76730;BME280;65653;53.106;18.046;2023-12-04T04:16:44;101397.76;;;-3.04;100.00
76730;BME280;65653;53.106;18.046;2023-12-04T04:19:10;101402.86;;;-3.05;100.00
76730;BME280;65653;53.106;18.046;2023-12-04T04:21:40;101404.41;;;-3.06;100.00
76730;BME280;65653;53.106;18.046;2023-12-04T04:24:07;101408.31;;;-3.08;100.00
76730;BME280;65653;53.106;18.046;2023-12-04T04:26:33;101406.55;;;-3.08;100.00
76730;BME280;65653;53.106;18.046;2023-12-04T04:29:00;101408.97;;;-3.09;100.00
76730;BME280;65653;53.106;18.046;2023-12-04T04:31:26;101410.05;;;-3.10;100.00
76730;BME280;65653;53.106;18.046;2023-12-04T04:33:53;101408.23;;;-3.09;100.00
76730;BME280;65653;53.106;18.046;2023-12-04T04:36:19;101414.96;;;-3.10;100.00
76730;BME280;65653;53.106;18.046;2023-12-04T04:38:45;101416.31;;;-3.11;100.00
76730;BME280;65653;53.106;18.046;2023-12-04T04:41:15;101414.32;;;-3.11;100.00
76730;BME280;65653;53.106;18.046;2023-12-04T04:43:42;101411.41;;;-3.11;100.00
76730;BME280;65653;53.106;18.046;2023-12-04T04:46:08;101411.79;;;-3.11;100.00
76730;BME280;65653;53.106;18.046;2023-12-04T04:48:35;101410.73;;;-3.12;100.00
76730;BME280;65653;53.106;18.046;2023-12-04T04:51:02;101409.88;;;-3.12;100.00
76730;BME280;65653;53.106;18.046;2023-12-04T04:53:28;101413.98;;;-3.12;100.00
76730;BME280;65653;53.106;18.046;2023-12-04T04:55:55;101411.58;;;-3.13;100.00
76730;BME280;65653;53.106;18.046;2023-12-04T04:58:21;101410.40;;;-3.15;100.00
76730;BME280;65653;53.106;18.046;2023-12-04T05:00:48;101407.27;;;-3.16;100.00
76730;BME280;65653;53.106;18.046;2023-12-04T05:03:15;101404.90;;;-3.19;100.00
76730;BME280;65653;53.106;18.046;2023-12-04T05:05:41;101408.04;;;-3.20;100.00
76730;BME280;65653;53.106;18.046;2023-12-04T05:08:08;101408.02;;;-3.22;100.00
76730;BME280;65653;53.106;18.046;2023-12-04T05:10:34;101405.73;;;-3.23;100.00
76730;BME280;65653;53.106;18.046;2023-12-04T05:13:01;101408.56;;;-3.25;100.00
76730;BME280;65653;53.106;18.046;2023-12-04T05:15:27;101413.50;;;-3.26;100.00
76730;BME280;65653;53.106;18.046;2023-12-04T05:17:54;101409.64;;;-3.27;100.00
76730;BME280;65653;53.106;18.046;2023-12-04T05:20:20;101408.60;;;-3.28;100.00
76730;BME280;65653;53.106;18.046;2023-12-04T05:22:47;101409.79;;;-3.30;100.00
76730;BME280;65653;53.106;18.046;2023-12-04T05:25:15;101411.48;;;-3.31;100.00
76730;BME280;65653;53.106;18.046;2023-12-04T05:27:41;101410.09;;;-3.31;100.00
76730;BME280;65653;53.106;18.046;2023-12-04T05:30:08;101413.75;;;-3.32;100.00
76730;BME280;65653;53.106;18.046;2023-12-04T05:32:34;101415.05;;;-3.33;100.00
76730;BME280;65653;53.106;18.046;2023-12-04T05:35:01;101418.72;;;-3.33;100.00
76730;BME280;65653;53.106;18.046;2023-12-04T05:37:27;101415.53;;;-3.35;100.00
76730;BME280;65653;53.106;18.046;2023-12-04T05:39:53;101404.73;;;-3.35;100.00
76730;BME280;65653;53.106;18.046;2023-12-04T05:42:20;101403.14;;;-3.36;100.00
76730;BME280;65653;53.106;18.046;2023-12-04T05:44:47;101403.38;;;-3.36;100.00
76730;BME280;65653;53.106;18.046;2023-12-04T05:47:13;101408.55;;;-3.38;100.00
76730;BME280;65653;53.106;18.046;2023-12-04T05:49:41;101402.13;;;-3.40;100.00
76730;BME280;65653;53.106;18.046;2023-12-04T05:52:07;101403.67;;;-3.41;100.00
76730;BME280;65653;53.106;18.046;2023-12-04T05:54:34;101404.77;;;-3.41;100.00
76730;BME280;65653;53.106;18.046;2023-12-04T05:57:00;101410.35;;;-3.44;100.00
76730;BME280;65653;53.106;18.046;2023-12-04T05:59:27;101404.17;;;-3.46;100.00
76730;BME280;65653;53.106;18.046;2023-12-04T06:01:53;101401.48;;;-3.46;100.00
76730;BME280;65653;53.106;18.046;2023-12-04T06:04:20;101400.83;;;-3.47;100.00
76730;BME280;65653;53.106;18.046;2023-12-04T06:06:46;101394.94;;;-3.48;100.00
76730;BME280;65653;53.106;18.046;2023-12-04T06:09:13;101394.48;;;-3.49;100.00
76730;BME280;65653;53.106;18.046;2023-12-04T06:11:41;101400.23;;;-3.52;100.00
76730;BME280;65653;53.106;18.046;2023-12-04T06:14:08;101400.73;;;-3.51;100.00
76730;BME280;65653;53.106;18.046;2023-12-04T06:16:34;101397.89;;;-3.52;100.00
76730;BME280;65653;53.106;18.046;2023-12-04T06:19:00;101403.66;;;-3.51;100.00
76730;BME280;65653;53.106;18.046;2023-12-04T06:21:27;101403.70;;;-3.52;100.00
76730;BME280;65653;53.106;18.046;2023-12-04T06:23:54;101404.85;;;-3.53;100.00
76730;BME280;65653;53.106;18.046;2023-12-04T06:26:21;101407.51;;;-3.55;100.00
76730;BME280;65653;53.106;18.046;2023-12-04T06:28:47;101404.86;;;-3.56;100.00
76730;BME280;65653;53.106;18.046;2023-12-04T06:31:14;101409.41;;;-3.57;100.00
76730;BME280;65653;53.106;18.046;2023-12-04T06:33:41;101412.29;;;-3.57;100.00
76730;BME280;65653;53.106;18.046;2023-12-04T06:36:09;101415.23;;;-3.57;100.00
76730;BME280;65653;53.106;18.046;2023-12-04T06:38:40;101420.28;;;-3.57;100.00
76730;BME280;65653;53.106;18.046;2023-12-04T06:41:08;101420.79;;;-3.57;100.00
76730;BME280;65653;53.106;18.046;2023-12-04T06:43:35;101418.98;;;-3.57;100.00
76730;BME280;65653;53.106;18.046;2023-12-04T06:46:02;101416.39;;;-3.56;100.00
76730;BME280;65653;53.106;18.046;2023-12-04T06:48:29;101415.10;;;-3.55;100.00
76730;BME280;65653;53.106;18.046;2023-12-04T06:50:55;101415.01;;;-3.57;100.00
76730;BME280;65653;53.106;18.046;2023-12-04T06:53:22;101412.89;;;-3.57;100.00
76730;BME280;65653;53.106;18.046;2023-12-04T06:55:48;101411.52;;;-3.56;100.00
76730;BME280;65653;53.106;18.046;2023-12-04T06:58:15;101399.13;;;-3.54;100.00
76730;BME280;65653;53.106;18.046;2023-12-04T07:00:41;101397.93;;;-3.52;100.00
76730;BME280;65653;53.106;18.046;2023-12-04T07:03:08;101396.62;;;-3.52;100.00
76730;BME280;65653;53.106;18.046;2023-12-04T07:05:34;101399.27;;;-3.51;100.00
76730;BME280;65653;53.106;18.046;2023-12-04T07:08:01;101401.71;;;-3.49;100.00
76730;BME280;65653;53.106;18.046;2023-12-04T07:10:27;101403.48;;;-3.49;100.00
76730;BME280;65653;53.106;18.046;2023-12-04T07:12:53;101408.85;;;-3.49;100.00
76730;BME280;65653;53.106;18.046;2023-12-04T07:15:20;101404.84;;;-3.48;100.00
76730;BME280;65653;53.106;18.046;2023-12-04T07:17:46;101410.31;;;-3.46;100.00
76730;BME280;65653;53.106;18.046;2023-12-04T07:20:13;101409.81;;;-3.43;100.00
76730;BME280;65653;53.106;18.046;2023-12-04T07:22:39;101413.33;;;-3.40;100.00
76730;BME280;65653;53.106;18.046;2023-12-04T07:25:06;101409.56;;;-3.40;100.00
76730;BME280;65653;53.106;18.046;2023-12-04T07:27:33;101413.81;;;-3.36;100.00
76730;BME280;65653;53.106;18.046;2023-12-04T07:30:01;101419.79;;;-3.33;100.00
76730;BME280;65653;53.106;18.046;2023-12-04T07:32:28;101425.23;;;-3.31;100.00
76730;BME280;65653;53.106;18.046;2023-12-04T07:34:55;101431.98;;;-3.29;100.00
76730;BME280;65653;53.106;18.046;2023-12-04T07:37:21;101429.94;;;-3.29;100.00
76730;BME280;65653;53.106;18.046;2023-12-04T07:39:53;101424.86;;;-3.28;100.00
76730;BME280;65653;53.106;18.046;2023-12-04T07:42:24;101424.11;;;-3.28;100.00
76730;BME280;65653;53.106;18.046;2023-12-04T07:44:51;101419.25;;;-3.25;100.00
76730;BME280;65653;53.106;18.046;2023-12-04T07:47:17;101419.95;;;-3.22;100.00
76730;BME280;65653;53.106;18.046;2023-12-04T07:49:45;101421.38;;;-3.19;100.00
76730;BME280;65653;53.106;18.046;2023-12-04T07:52:14;101417.44;;;-3.17;100.00
76730;BME280;65653;53.106;18.046;2023-12-04T07:54:41;101423.02;;;-3.14;100.00
76730;BME280;65653;53.106;18.046;2023-12-04T07:57:07;101418.98;;;-3.11;100.00
76730;BME280;65653;53.106;18.046;2023-12-04T07:59:34;101416.39;;;-3.10;100.00
76730;BME280;65653;53.106;18.046;2023-12-04T08:02:01;101417.80;;;-3.07;100.00
76730;BME280;65653;53.106;18.046;2023-12-04T08:04:27;101417.66;;;-3.02;100.00
76730;BME280;65653;53.106;18.046;2023-12-04T08:06:54;101426.34;;;-2.99;100.00
76730;BME280;65653;53.106;18.046;2023-12-04T08:09:20;101423.59;;;-2.93;100.00
76730;BME280;65653;53.106;18.046;2023-12-04T08:11:47;101426.70;;;-2.91;100.00
76730;BME280;65653;53.106;18.046;2023-12-04T08:14:13;101424.66;;;-2.91;100.00
76730;BME280;65653;53.106;18.046;2023-12-04T08:16:40;101428.34;;;-2.89;100.00
76730;BME280;65653;53.106;18.046;2023-12-04T08:19:06;101423.66;;;-2.83;100.00
76730;BME280;65653;53.106;18.046;2023-12-04T08:21:33;101423.96;;;-2.77;100.00
76730;BME280;65653;53.106;18.046;2023-12-04T08:23:59;101425.70;;;-2.73;100.00
76730;BME280;65653;53.106;18.046;2023-12-04T08:26:26;101422.88;;;-2.75;99.98
76730;BME280;65653;53.106;18.046;2023-12-04T08:28:52;101428.64;;;-2.74;99.77
76730;BME280;65653;53.106;18.046;2023-12-04T08:31:19;101427.86;;;-2.78;99.86
76730;BME280;65653;53.106;18.046;2023-12-04T08:33:46;101436.33;;;-2.81;99.86
76730;BME280;65653;53.106;18.046;2023-12-04T08:36:12;101430.17;;;-2.81;99.88
76730;BME280;65653;53.106;18.046;2023-12-04T08:38:39;101427.66;;;-2.78;99.83
76730;BME280;65653;53.106;18.046;2023-12-04T08:41:06;101427.83;;;-2.78;99.82
76730;BME280;65653;53.106;18.046;2023-12-04T08:43:32;101426.29;;;-2.74;99.90
76730;BME280;65653;53.106;18.046;2023-12-04T08:45:59;101435.02;;;-2.70;99.81
76730;BME280;65653;53.106;18.046;2023-12-04T08:48:27;101434.65;;;-2.69;99.50
76730;BME280;65653;53.106;18.046;2023-12-04T08:50:53;101439.98;;;-2.68;99.47
76730;BME280;65653;53.106;18.046;2023-12-04T08:53:20;101439.41;;;-2.65;99.38
76730;BME280;65653;53.106;18.046;2023-12-04T08:55:46;101443.74;;;-2.63;99.21
76730;BME280;65653;53.106;18.046;2023-12-04T08:58:13;101442.66;;;-2.57;99.44
76730;BME280;65653;53.106;18.046;2023-12-04T09:00:39;101442.71;;;-2.50;99.21
76730;BME280;65653;53.106;18.046;2023-12-04T09:03:09;101446.67;;;-2.50;98.89
76730;BME280;65653;53.106;18.046;2023-12-04T09:05:38;101442.41;;;-2.54;98.49
76730;BME280;65653;53.106;18.046;2023-12-04T09:08:05;101445.45;;;-2.50;98.64
76730;BME280;65653;53.106;18.046;2023-12-04T09:10:31;101446.70;;;-2.48;98.56
76730;BME280;65653;53.106;18.046;2023-12-04T09:12:58;101442.58;;;-2.43;98.70
76730;BME280;65653;53.106;18.046;2023-12-04T09:15:24;101443.55;;;-2.39;98.36
76730;BME280;65653;53.106;18.046;2023-12-04T09:17:51;101445.16;;;-2.36;98.20
76730;BME280;65653;53.106;18.046;2023-12-04T09:20:17;101443.21;;;-2.34;97.87
76730;BME280;65653;53.106;18.046;2023-12-04T09:22:44;101445.23;;;-2.27;98.06
76730;BME280;65653;53.106;18.046;2023-12-04T09:25:10;101444.58;;;-2.23;97.65
76730;BME280;65653;53.106;18.046;2023-12-04T09:27:37;101447.59;;;-2.16;97.49
76730;BME280;65653;53.106;18.046;2023-12-04T09:30:03;101447.21;;;-2.19;97.09
76730;BME280;65653;53.106;18.046;2023-12-04T09:32:31;101445.77;;;-2.13;97.24
76730;BME280;65653;53.106;18.046;2023-12-04T09:34:57;101455.59;;;-2.06;97.00
76730;BME280;65653;53.106;18.046;2023-12-04T09:37:25;101456.89;;;-2.02;96.70
76730;BME280;65653;53.106;18.046;2023-12-04T09:39:51;101451.41;;;-1.94;96.78
76730;BME280;65653;53.106;18.046;2023-12-04T09:42:18;101448.38;;;-1.84;96.26
76730;BME280;65653;53.106;18.046;2023-12-04T09:44:47;101451.36;;;-1.80;95.67
76730;BME280;65653;53.106;18.046;2023-12-04T09:47:17;101453.98;;;-1.79;95.21
76730;BME280;65653;53.106;18.046;2023-12-04T09:49:45;101455.98;;;-1.79;95.04
76730;BME280;65653;53.106;18.046;2023-12-04T09:52:12;101458.25;;;-1.78;94.95
76730;BME280;65653;53.106;18.046;2023-12-04T09:54:38;101460.27;;;-1.73;95.14
76730;BME280;65653;53.106;18.046;2023-12-04T09:57:06;101460.67;;;-1.74;94.63
76730;BME280;65653;53.106;18.046;2023-12-04T09:59:33;101455.37;;;-1.71;94.68
76730;BME280;65653;53.106;18.046;2023-12-04T10:02:02;101458.86;;;-1.69;94.60
76730;BME280;65653;53.106;18.046;2023-12-04T10:04:28;101456.48;;;-1.66;94.61
76730;BME280;65653;53.106;18.046;2023-12-04T10:06:55;101456.48;;;-1.61;94.65
76730;BME280;65653;53.106;18.046;2023-12-04T10:09:22;101458.05;;;-1.62;94.48
76730;BME280;65653;53.106;18.046;2023-12-04T10:11:51;101457.39;;;-1.64;94.66
76730;BME280;65653;53.106;18.046;2023-12-04T10:14:19;101452.52;;;-1.64;94.97
76730;BME280;65653;53.106;18.046;2023-12-04T10:16:47;101449.65;;;-1.62;94.99
76730;BME280;65653;53.106;18.046;2023-12-04T10:21:45;101452.17;;;-1.64;94.97
76730;BME280;65653;53.106;18.046;2023-12-04T10:24:12;101447.35;;;-1.55;95.44
76730;BME280;65653;53.106;18.046;2023-12-04T10:26:49;101439.62;;;-1.46;95.11
76730;BME280;65653;53.106;18.046;2023-12-04T10:29:17;101442.73;;;-1.41;94.46
76730;BME280;65653;53.106;18.046;2023-12-04T10:31:44;101438.59;;;-1.44;94.04
76730;BME280;65653;53.106;18.046;2023-12-04T10:34:10;101430.31;;;-1.40;94.03
76730;BME280;65653;53.106;18.046;2023-12-04T10:36:37;101432.65;;;-1.32;94.04
76730;BME280;65653;53.106;18.046;2023-12-04T10:39:04;101433.05;;;-1.33;93.82
76730;BME280;65653;53.106;18.046;2023-12-04T10:41:31;101430.98;;;-1.31;93.80
76730;BME280;65653;53.106;18.046;2023-12-04T10:44:00;101425.83;;;-1.30;93.42
76730;BME280;65653;53.106;18.046;2023-12-04T10:46:27;101428.13;;;-1.35;93.34
76730;BME280;65653;53.106;18.046;2023-12-04T10:48:54;101425.98;;;-1.37;93.67
76730;BME280;65653;53.106;18.046;2023-12-04T10:51:23;101426.94;;;-1.31;93.93
76730;BME280;65653;53.106;18.046;2023-12-04T10:53:50;101421.88;;;-1.19;93.89
76730;BME280;65653;53.106;18.046;2023-12-04T10:56:30;101423.08;;;-1.16;93.36
76730;BME280;65653;53.106;18.046;2023-12-04T10:59:00;101420.09;;;-1.19;93.03
76730;BME280;65653;53.106;18.046;2023-12-04T11:01:30;101416.45;;;-1.12;92.79
76730;BME280;65653;53.106;18.046;2023-12-04T11:03:59;101414.10;;;-1.09;92.49
76730;BME280;65653;53.106;18.046;2023-12-04T11:06:27;101414.27;;;-0.95;92.97
76730;BME280;65653;53.106;18.046;2023-12-04T11:08:56;101411.73;;;-0.88;92.15
76730;BME280;65653;53.106;18.046;2023-12-04T11:11:30;101415.89;;;-0.85;91.65
76730;BME280;65653;53.106;18.046;2023-12-04T11:14:01;101419.02;;;-0.86;91.27
76730;BME280;65653;53.106;18.046;2023-12-04T11:16:39;101414.48;;;-0.81;91.27
76730;BME280;65653;53.106;18.046;2023-12-04T11:19:27;101410.45;;;-0.71;90.98
76730;BME280;65653;53.106;18.046;2023-12-04T11:21:58;101413.73;;;-0.57;90.65
76730;BME280;65653;53.106;18.046;2023-12-04T11:24:25;101413.41;;;-0.46;90.52
76730;BME280;65653;53.106;18.046;2023-12-04T11:26:52;101407.97;;;-0.32;90.28
76730;BME280;65653;53.106;18.046;2023-12-04T11:29:20;101408.99;;;-0.31;89.10
76730;BME280;65653;53.106;18.046;2023-12-04T11:31:47;101401.47;;;-0.37;89.36
76730;BME280;65653;53.106;18.046;2023-12-04T11:34:14;101399.99;;;-0.35;89.32
76730;BME280;65653;53.106;18.046;2023-12-04T11:36:41;101400.58;;;-0.35;88.82
76730;BME280;65653;53.106;18.046;2023-12-04T11:39:10;101399.09;;;-0.28;89.46
76730;BME280;65653;53.106;18.046;2023-12-04T11:41:37;101397.50;;;-0.26;89.09
76730;BME280;65653;53.106;18.046;2023-12-04T11:44:12;101397.29;;;-0.21;89.41
76730;BME280;65653;53.106;18.046;2023-12-04T11:47:03;101396.55;;;-0.12;89.11
76730;BME280;65653;53.106;18.046;2023-12-04T11:49:31;101400.10;;;0.10;88.88
76730;BME280;65653;53.106;18.046;2023-12-04T11:51:59;101399.50;;;0.06;87.73
76730;BME280;65653;53.106;18.046;2023-12-04T11:54:27;101395.14;;;0.08;87.76
76730;BME280;65653;53.106;18.046;2023-12-04T11:59:37;101385.50;;;1.95;81.25
76730;BME280;65653;53.106;18.046;2023-12-04T12:02:08;101388.80;;;2.40;77.09
76730;BME280;65653;53.106;18.046;2023-12-04T12:04:34;101389.36;;;2.07;78.60
76730;BME280;65653;53.106;18.046;2023-12-04T12:07:02;101392.38;;;1.90;79.41
76730;BME280;65653;53.106;18.046;2023-12-04T12:09:32;101390.10;;;2.01;79.88
76730;BME280;65653;53.106;18.046;2023-12-04T12:12:03;101384.77;;;2.94;77.11
76730;BME280;65653;53.106;18.046;2023-12-04T12:14:31;101378.27;;;3.97;72.46
76730;BME280;65653;53.106;18.046;2023-12-04T12:16:59;101366.64;;;4.65;71.37
76730;BME280;65653;53.106;18.046;2023-12-04T12:19:27;101361.73;;;4.74;70.42
76730;BME280;65653;53.106;18.046;2023-12-04T12:21:54;101366.46;;;3.62;71.10
76730;BME280;65653;53.106;18.046;2023-12-04T12:24:20;101363.52;;;2.75;73.74
76730;BME280;65653;53.106;18.046;2023-12-04T12:26:47;101359.81;;;2.10;76.83
76730;BME280;65653;53.106;18.046;2023-12-04T12:29:13;101356.52;;;1.54;78.80
76730;BME280;65653;53.106;18.046;2023-12-04T12:31:40;101351.55;;;1.15;80.20
76730;BME280;65653;53.106;18.046;2023-12-04T12:34:06;101350.89;;;0.95;81.52
76730;BME280;65653;53.106;18.046;2023-12-04T12:36:33;101350.05;;;0.73;82.51
76730;BME280;65653;53.106;18.046;2023-12-04T12:39:00;101347.90;;;0.46;83.60